sensor_id;sensor_type;location;lat;lon;timestamp;temperature;humidity
9167;DHT22;4618;48.818;9.088;2023-02-20T00:01:53;8.20;1.00
9167;DHT22;4618;48.818;9.088;2023-02-20T00:04:19;8.10;1.00
9167;DHT22;4618;48.818;9.088;2023-02-20T00:06:45;8.10;1.00
9167;DHT22;4618;48.818;9.088;2023-02-20T00:09:11;8.10;1.00
9167;DHT22;4618;48.818;9.088;2023-02-20T00:11:37;8.10;1.00
9167;DHT22;4618;48.818;9.088;2023-02-20T00:14:02;8.10;1.00
9167;DHT22;4618;48.818;9.088;2023-02-20T00:16:28;8.10;1.00
9167;DHT22;4618;48.818;9.088;2023-02-20T00:18:53;8.10;1.00
9167;DHT22;4618;48.818;9.088;2023-02-20T00:21:19;8.10;1.00
9167;DHT22;4618;48.818;9.088;2023-02-20T00:23:45;8.10;1.00
9167;DHT22;4618;48.818;9.088;2023-02-20T00:26:12;8.10;99.90
9167;DHT22;4618;48.818;9.088;2023-02-20T00:28:41;8.10;1.00
9167;DHT22;4618;48.818;9.088;2023-02-20T00:31:12;7.90;1.00
9167;DHT22;4618;48.818;9.088;2023-02-20T00:33:39;7.80;1.00
9167;DHT22;4618;48.818;9.088;2023-02-20T00:36:05;7.80;1.00
9167;DHT22;4618;48.818;9.088;2023-02-20T00:38:30;7.80;1.00
9167;DHT22;4618;48.818;9.088;2023-02-20T00:40:56;7.80;1.00
9167;DHT22;4618;48.818;9.088;2023-02-20T00:43:21;7.80;1.00
9167;DHT22;4618;48.818;9.088;2023-02-20T00:45:47;7.80;1.00
9167;DHT22;4618;48.818;9.088;2023-02-20T00:48:13;7.80;1.00
9167;DHT22;4618;48.818;9.088;2023-02-20T00:50:38;7.70;1.00
9167;DHT22;4618;48.818;9.088;2023-02-20T00:53:04;7.70;62.90
9167;DHT22;4618;48.818;9.088;2023-02-20T00:55:29;7.80;1.00
9167;DHT22;4618;48.818;9.088;2023-02-20T00:57:55;7.70;1.00
9167;DHT22;4618;48.818;9.088;2023-02-20T01:00:24;7.60;1.00
9167;DHT22;4618;48.818;9.088;2023-02-20T01:02:50;7.60;10.80
9167;DHT22;4618;48.818;9.088;2023-02-20T01:05:16;7.50;1.00
9167;DHT22;4618;48.818;9.088;2023-02-20T01:07:42;7.50;1.00
9167;DHT22;4618;48.818;9.088;2023-02-20T01:10:09;7.40;99.90
9167;DHT22;4618;48.818;9.088;2023-02-20T01:12:34;7.40;99.90
9167;DHT22;4618;48.818;9.088;2023-02-20T01:15:00;7.30;99.90
9167;DHT22;4618;48.818;9.088;2023-02-20T01:17:26;7.20;1.00
9167;DHT22;4618;48.818;9.088;2023-02-20T01:19:51;7.20;1.00
9167;DHT22;4618;48.818;9.088;2023-02-20T01:22:17;7.20;1.00
9167;DHT22;4618;48.818;9.088;2023-02-20T01:24:42;7.10;1.00
9167;DHT22;4618;48.818;9.088;2023-02-20T01:27:08;7.10;1.00
9167;DHT22;4618;48.818;9.088;2023-02-20T01:29:34;7.10;1.00
9167;DHT22;4618;48.818;9.088;2023-02-20T01:32:00;7.00;1.00
9167;DHT22;4618;48.818;9.088;2023-02-20T01:34:26;7.00;1.00
9167;DHT22;4618;48.818;9.088;2023-02-20T01:36:53;7.00;1.00
9167;DHT22;4618;48.818;9.088;2023-02-20T01:39:22;6.80;1.00
9167;DHT22;4618;48.818;9.088;2023-02-20T01:41:51;6.80;35.10
9167;DHT22;4618;48.818;9.088;2023-02-20T01:44:24;6.70;1.00
9167;DHT22;4618;48.818;9.088;2023-02-20T01:46:55;6.90;1.00
9167;DHT22;4618;48.818;9.088;2023-02-20T01:49:43;6.90;1.00
9167;DHT22;4618;48.818;9.088;2023-02-20T01:52:26;6.90;99.90
9167;DHT22;4618;48.818;9.088;2023-02-20T01:54:58;6.90;99.90
9167;DHT22;4618;48.818;9.088;2023-02-20T01:57:27;6.90;99.90
9167;DHT22;4618;48.818;9.088;2023-02-20T01:59:59;6.80;99.90
9167;DHT22;4618;48.818;9.088;2023-02-20T02:02:30;6.80;99.90
9167;DHT22;4618;48.818;9.088;2023-02-20T02:04:57;6.90;99.90
9167;DHT22;4618;48.818;9.088;2023-02-20T02:07:23;6.90;99.90
9167;DHT22;4618;48.818;9.088;2023-02-20T02:10:06;7.00;99.90
9167;DHT22;4618;48.818;9.088;2023-02-20T02:12:31;7.00;14.90
9167;DHT22;4618;48.818;9.088;2023-02-20T02:14:57;7.00;1.00
9167;DHT22;4618;48.818;9.088;2023-02-20T02:29:14;7.00;1.00
9167;DHT22;4618;48.818;9.088;2023-02-20T02:37:29;7.20;1.00
9167;DHT22;4618;48.818;9.088;2023-02-20T02:40:03;7.30;1.00
9167;DHT22;4618;48.818;9.088;2023-02-20T02:42:54;7.20;99.90
9167;DHT22;4618;48.818;9.088;2023-02-20T02:45:58;7.30;99.90
9167;DHT22;4618;48.818;9.088;2023-02-20T02:48:51;7.30;99.90
9167;DHT22;4618;48.818;9.088;2023-02-20T02:51:24;7.20;99.90
9167;DHT22;4618;48.818;9.088;2023-02-20T02:54:08;7.20;1.00
9167;DHT22;4618;48.818;9.088;2023-02-20T02:56:45;7.20;1.00
9167;DHT22;4618;48.818;9.088;2023-02-20T02:59:17;7.10;1.00
9167;DHT22;4618;48.818;9.088;2023-02-20T03:01:47;6.90;1.00
9167;DHT22;4618;48.818;9.088;2023-02-20T03:04:15;6.80;99.90
9167;DHT22;4618;48.818;9.088;2023-02-20T03:06:50;6.90;99.90
9167;DHT22;4618;48.818;9.088;2023-02-20T03:09:26;6.90;99.90
9167;DHT22;4618;48.818;9.088;2023-02-20T03:11:54;6.80;99.90
9167;DHT22;4618;48.818;9.088;2023-02-20T03:14:26;6.70;1.00
9167;DHT22;4618;48.818;9.088;2023-02-20T03:19:46;6.80;1.00
9167;DHT22;4618;48.818;9.088;2023-02-20T03:22:17;6.80;1.00
9167;DHT22;4618;48.818;9.088;2023-02-20T03:24:46;6.70;1.00
9167;DHT22;4618;48.818;9.088;2023-02-20T03:33:10;6.90;1.00
9167;DHT22;4618;48.818;9.088;2023-02-20T03:35:55;6.80;1.00
9167;DHT22;4618;48.818;9.088;2023-02-20T03:38:41;6.80;1.00
9167;DHT22;4618;48.818;9.088;2023-02-20T03:41:28;7.00;99.90
9167;DHT22;4618;48.818;9.088;2023-02-20T03:44:14;7.00;99.90
9167;DHT22;4618;48.818;9.088;2023-02-20T03:46:43;7.00;99.90
9167;DHT22;4618;48.818;9.088;2023-02-20T03:49:12;6.90;99.90
9167;DHT22;4618;48.818;9.088;2023-02-20T03:51:39;6.90;1.00
9167;DHT22;4618;48.818;9.088;2023-02-20T03:54:25;6.90;1.00
9167;DHT22;4618;48.818;9.088;2023-02-20T03:56:58;6.90;1.00
9167;DHT22;4618;48.818;9.088;2023-02-20T03:59:39;6.90;99.90
9167;DHT22;4618;48.818;9.088;2023-02-20T04:02:13;6.90;99.90
9167;DHT22;4618;48.818;9.088;2023-02-20T04:04:44;6.80;99.90
9167;DHT22;4618;48.818;9.088;2023-02-20T04:07:35;6.80;99.90
9167;DHT22;4618;48.818;9.088;2023-02-20T04:10:02;6.80;99.90
9167;DHT22;4618;48.818;9.088;2023-02-20T04:12:32;6.80;99.90
9167;DHT22;4618;48.818;9.088;2023-02-20T04:15:00;6.70;1.00
9167;DHT22;4618;48.818;9.088;2023-02-20T04:17:30;6.70;1.00
9167;DHT22;4618;48.818;9.088;2023-02-20T04:19:56;6.70;1.00
9167;DHT22;4618;48.818;9.088;2023-02-20T04:22:29;6.60;1.00
9167;DHT22;4618;48.818;9.088;2023-02-20T04:27:37;6.50;1.70
9167;DHT22;4618;48.818;9.088;2023-02-20T04:30:03;6.30;99.90
9167;DHT22;4618;48.818;9.088;2023-02-20T04:32:29;6.20;1.00
9167;DHT22;4618;48.818;9.088;2023-02-20T04:34:54;6.10;1.00
9167;DHT22;4618;48.818;9.088;2023-02-20T04:37:20;6.10;99.90
9167;DHT22;4618;48.818;9.088;2023-02-20T04:39:46;6.10;97.20
9167;DHT22;4618;48.818;9.088;2023-02-20T04:42:11;5.90;99.90
9167;DHT22;4618;48.818;9.088;2023-02-20T04:44:37;5.90;99.90
9167;DHT22;4618;48.818;9.088;2023-02-20T04:47:07;6.00;99.90
9167;DHT22;4618;48.818;9.088;2023-02-20T04:49:33;6.00;1.00
9167;DHT22;4618;48.818;9.088;2023-02-20T04:51:59;6.00;1.00
9167;DHT22;4618;48.818;9.088;2023-02-20T04:54:25;6.00;1.00
9167;DHT22;4618;48.818;9.088;2023-02-20T04:56:51;6.10;99.90
9167;DHT22;4618;48.818;9.088;2023-02-20T04:59:17;6.00;99.90
9167;DHT22;4618;48.818;9.088;2023-02-20T05:01:42;5.80;99.90
9167;DHT22;4618;48.818;9.088;2023-02-20T05:04:13;5.80;1.00
9167;DHT22;4618;48.818;9.088;2023-02-20T05:06:44;5.80;1.00
9167;DHT22;4618;48.818;9.088;2023-02-20T05:09:09;5.70;19.10
9167;DHT22;4618;48.818;9.088;2023-02-20T05:11:36;5.70;90.10
9167;DHT22;4618;48.818;9.088;2023-02-20T05:14:03;5.70;99.90
9167;DHT22;4618;48.818;9.088;2023-02-20T05:16:29;5.80;99.90
9167;DHT22;4618;48.818;9.088;2023-02-20T05:18:54;5.90;1.00
9167;DHT22;4618;48.818;9.088;2023-02-20T05:21:20;5.90;99.90
9167;DHT22;4618;48.818;9.088;2023-02-20T05:24:05;5.90;1.00
9167;DHT22;4618;48.818;9.088;2023-02-20T05:26:31;5.90;99.90
9167;DHT22;4618;48.818;9.088;2023-02-20T05:28:56;5.90;99.90
9167;DHT22;4618;48.818;9.088;2023-02-20T05:31:22;5.80;1.00
9167;DHT22;4618;48.818;9.088;2023-02-20T05:33:48;5.80;1.00
9167;DHT22;4618;48.818;9.088;2023-02-20T05:36:14;5.70;1.00
9167;DHT22;4618;48.818;9.088;2023-02-20T05:38:40;5.60;77.10
9167;DHT22;4618;48.818;9.088;2023-02-20T05:41:08;5.50;99.90
9167;DHT22;4618;48.818;9.088;2023-02-20T05:43:33;5.50;99.90
9167;DHT22;4618;48.818;9.088;2023-02-20T05:45:59;5.50;99.90
9167;DHT22;4618;48.818;9.088;2023-02-20T05:48:24;5.50;99.90
9167;DHT22;4618;48.818;9.088;2023-02-20T05:50:50;5.40;99.90
9167;DHT22;4618;48.818;9.088;2023-02-20T05:53:15;5.30;1.00
9167;DHT22;4618;48.818;9.088;2023-02-20T05:55:41;5.10;1.00
9167;DHT22;4618;48.818;9.088;2023-02-20T05:58:07;5.10;17.10
9167;DHT22;4618;48.818;9.088;2023-02-20T06:00:32;5.20;99.90
9167;DHT22;4618;48.818;9.088;2023-02-20T06:02:58;5.10;99.90
9167;DHT22;4618;48.818;9.088;2023-02-20T06:05:24;5.00;99.90
9167;DHT22;4618;48.818;9.088;2023-02-20T06:07:50;5.00;99.90
9167;DHT22;4618;48.818;9.088;2023-02-20T06:10:18;5.00;99.90
9167;DHT22;4618;48.818;9.088;2023-02-20T06:12:44;5.00;99.90
9167;DHT22;4618;48.818;9.088;2023-02-20T06:15:11;5.00;99.90
9167;DHT22;4618;48.818;9.088;2023-02-20T06:17:36;5.10;99.90
9167;DHT22;4618;48.818;9.088;2023-02-20T06:20:02;5.00;99.90
9167;DHT22;4618;48.818;9.088;2023-02-20T06:22:27;5.10;99.90
9167;DHT22;4618;48.818;9.088;2023-02-20T06:24:53;5.20;63.00
9167;DHT22;4618;48.818;9.088;2023-02-20T06:27:19;5.20;1.00
9167;DHT22;4618;48.818;9.088;2023-02-20T06:29:47;5.20;1.00
9167;DHT22;4618;48.818;9.088;2023-02-20T06:32:13;5.30;1.00
9167;DHT22;4618;48.818;9.088;2023-02-20T06:34:38;5.30;1.00
9167;DHT22;4618;48.818;9.088;2023-02-20T06:37:04;5.30;1.00
9167;DHT22;4618;48.818;9.088;2023-02-20T06:39:31;5.40;99.90
9167;DHT22;4618;48.818;9.088;2023-02-20T06:41:57;5.40;99.90
9167;DHT22;4618;48.818;9.088;2023-02-20T06:44:22;5.50;99.90
9167;DHT22;4618;48.818;9.088;2023-02-20T06:46:48;5.50;14.70
9167;DHT22;4618;48.818;9.088;2023-02-20T06:49:14;5.50;1.00
9167;DHT22;4618;48.818;9.088;2023-02-20T06:51:40;5.50;1.00
9167;DHT22;4618;48.818;9.088;2023-02-20T06:54:06;5.60;1.00
9167;DHT22;4618;48.818;9.088;2023-02-20T06:56:33;5.60;1.00
9167;DHT22;4618;48.818;9.088;2023-02-20T06:59:01;5.70;1.00
9167;DHT22;4618;48.818;9.088;2023-02-20T07:01:29;5.70;99.90
9167;DHT22;4618;48.818;9.088;2023-02-20T07:03:56;5.80;99.90
9167;DHT22;4618;48.818;9.088;2023-02-20T07:06:23;5.70;99.90
9167;DHT22;4618;48.818;9.088;2023-02-20T07:08:50;5.70;99.90
9167;DHT22;4618;48.818;9.088;2023-02-20T07:11:17;5.60;1.00
9167;DHT22;4618;48.818;9.088;2023-02-20T07:13:44;5.70;1.00
9167;DHT22;4618;48.818;9.088;2023-02-20T07:16:09;5.60;1.00
9167;DHT22;4618;48.818;9.088;2023-02-20T07:18:35;5.70;1.00
9167;DHT22;4618;48.818;9.088;2023-02-20T07:21:00;5.80;99.90
9167;DHT22;4618;48.818;9.088;2023-02-20T07:23:26;5.80;99.90
9167;DHT22;4618;48.818;9.088;2023-02-20T07:25:52;5.80;99.90
9167;DHT22;4618;48.818;9.088;2023-02-20T07:28:18;5.90;99.90
9167;DHT22;4618;48.818;9.088;2023-02-20T07:30:46;6.00;94.10
9167;DHT22;4618;48.818;9.088;2023-02-20T07:33:13;6.00;1.00
9167;DHT22;4618;48.818;9.088;2023-02-20T07:35:39;6.20;1.00
9167;DHT22;4618;48.818;9.088;2023-02-20T07:38:04;6.20;1.00
9167;DHT22;4618;48.818;9.088;2023-02-20T07:40:30;6.40;99.90
9167;DHT22;4618;48.818;9.088;2023-02-20T07:42:55;6.50;99.90
9167;DHT22;4618;48.818;9.088;2023-02-20T07:45:21;6.60;1.00
9167;DHT22;4618;48.818;9.088;2023-02-20T07:47:47;6.70;1.00
9167;DHT22;4618;48.818;9.088;2023-02-20T07:50:14;6.80;99.90
9167;DHT22;4618;48.818;9.088;2023-02-20T07:52:40;6.90;99.90
9167;DHT22;4618;48.818;9.088;2023-02-20T07:55:05;7.00;92.50
9167;DHT22;4618;48.818;9.088;2023-02-20T07:57:33;7.10;1.00
9167;DHT22;4618;48.818;9.088;2023-02-20T08:00:00;7.10;1.00
9167;DHT22;4618;48.818;9.088;2023-02-20T08:02:26;7.20;99.90
9167;DHT22;4618;48.818;9.088;2023-02-20T08:04:51;7.30;99.90
9167;DHT22;4618;48.818;9.088;2023-02-20T08:07:17;7.40;1.00
9167;DHT22;4618;48.818;9.088;2023-02-20T08:09:43;7.50;1.00
9167;DHT22;4618;48.818;9.088;2023-02-20T08:12:10;7.70;1.00
9167;DHT22;4618;48.818;9.088;2023-02-20T08:14:36;7.80;1.00
9167;DHT22;4618;48.818;9.088;2023-02-20T08:17:01;7.90;99.90
9167;DHT22;4618;48.818;9.088;2023-02-20T08:19:27;7.90;99.90
9167;DHT22;4618;48.818;9.088;2023-02-20T08:21:52;7.90;99.90
9167;DHT22;4618;48.818;9.088;2023-02-20T08:24:18;7.90;99.90
9167;DHT22;4618;48.818;9.088;2023-02-20T08:26:44;8.00;99.90
9167;DHT22;4618;48.818;9.088;2023-02-20T08:29:10;8.10;99.90
9167;DHT22;4618;48.818;9.088;2023-02-20T08:31:36;8.10;25.90
9167;DHT22;4618;48.818;9.088;2023-02-20T08:34:02;8.20;1.00
9167;DHT22;4618;48.818;9.088;2023-02-20T08:36:27;8.30;1.00
9167;DHT22;4618;48.818;9.088;2023-02-20T08:38:53;8.40;1.00
9167;DHT22;4618;48.818;9.088;2023-02-20T08:41:19;8.40;1.00
9167;DHT22;4618;48.818;9.088;2023-02-20T08:43:45;8.50;1.00
9167;DHT22;4618;48.818;9.088;2023-02-20T08:46:11;8.70;1.00
9167;DHT22;4618;48.818;9.088;2023-02-20T08:48:37;8.70;1.00
9167;DHT22;4618;48.818;9.088;2023-02-20T08:51:03;8.80;1.00
9167;DHT22;4618;48.818;9.088;2023-02-20T08:53:29;8.90;1.00
9167;DHT22;4618;48.818;9.088;2023-02-20T08:55:55;9.10;99.90
9167;DHT22;4618;48.818;9.088;2023-02-20T08:58:22;9.50;99.90
9167;DHT22;4618;48.818;9.088;2023-02-20T09:00:49;9.80;99.90
9167;DHT22;4618;48.818;9.088;2023-02-20T09:03:15;10.20;99.90
9167;DHT22;4618;48.818;9.088;2023-02-20T09:05:41;10.80;48.60
9167;DHT22;4618;48.818;9.088;2023-02-20T09:08:07;11.40;1.00
9167;DHT22;4618;48.818;9.088;2023-02-20T09:10:33;11.90;1.00
9167;DHT22;4618;48.818;9.088;2023-02-20T09:12:58;12.40;1.00
9167;DHT22;4618;48.818;9.088;2023-02-20T09:15:24;12.90;1.00
9167;DHT22;4618;48.818;9.088;2023-02-20T09:17:51;13.00;1.00
9167;DHT22;4618;48.818;9.088;2023-02-20T09:20:19;13.50;1.00
9167;DHT22;4618;48.818;9.088;2023-02-20T09:22:49;14.20;1.00
9167;DHT22;4618;48.818;9.088;2023-02-20T09:25:16;14.30;1.00
9167;DHT22;4618;48.818;9.088;2023-02-20T09:27:41;14.70;1.00
9167;DHT22;4618;48.818;9.088;2023-02-20T09:30:08;14.80;1.00
9167;DHT22;4618;48.818;9.088;2023-02-20T09:32:33;15.00;1.00
9167;DHT22;4618;48.818;9.088;2023-02-20T09:34:59;14.90;1.00
9167;DHT22;4618;48.818;9.088;2023-02-20T09:37:24;15.00;1.00
9167;DHT22;4618;48.818;9.088;2023-02-20T09:39:50;15.00;1.00
9167;DHT22;4618;48.818;9.088;2023-02-20T09:45:18;15.50;1.00
9167;DHT22;4618;48.818;9.088;2023-02-20T09:48:09;15.50;1.00
9167;DHT22;4618;48.818;9.088;2023-02-20T09:55:46;15.00;1.00
9167;DHT22;4618;48.818;9.088;2023-02-20T09:58:21;14.70;1.00
9167;DHT22;4618;48.818;9.088;2023-02-20T10:00:47;14.30;1.00
9167;DHT22;4618;48.818;9.088;2023-02-20T10:03:19;13.70;1.00
9167;DHT22;4618;48.818;9.088;2023-02-20T10:05:46;12.90;1.00
9167;DHT22;4618;48.818;9.088;2023-02-20T10:08:18;12.30;1.00
9167;DHT22;4618;48.818;9.088;2023-02-20T10:10:44;12.20;1.00
9167;DHT22;4618;48.818;9.088;2023-02-20T10:16:21;12.30;1.00
9167;DHT22;4618;48.818;9.088;2023-02-20T10:19:09;12.90;1.00
9167;DHT22;4618;48.818;9.088;2023-02-20T10:27:42;14.50;1.00
9167;DHT22;4618;48.818;9.088;2023-02-20T10:30:13;15.60;1.00
9167;DHT22;4618;48.818;9.088;2023-02-20T10:38:23;17.80;1.00
9167;DHT22;4618;48.818;9.088;2023-02-20T10:41:09;17.40;1.00
9167;DHT22;4618;48.818;9.088;2023-02-20T10:43:45;17.40;1.00
9167;DHT22;4618;48.818;9.088;2023-02-20T10:46:19;17.40;1.00
9167;DHT22;4618;48.818;9.088;2023-02-20T10:48:47;17.00;1.00
9167;DHT22;4618;48.818;9.088;2023-02-20T10:51:29;17.90;1.00
9167;DHT22;4618;48.818;9.088;2023-02-20T10:56:36;17.80;1.00
9167;DHT22;4618;48.818;9.088;2023-02-20T11:02:02;19.70;1.00
9167;DHT22;4618;48.818;9.088;2023-02-20T11:04:38;20.30;1.00
9167;DHT22;4618;48.818;9.088;2023-02-20T11:07:12;20.30;1.00
9167;DHT22;4618;48.818;9.088;2023-02-20T11:09:39;19.80;1.00
9167;DHT22;4618;48.818;9.088;2023-02-20T11:12:05;19.80;1.00
9167;DHT22;4618;48.818;9.088;2023-02-20T11:17:14;19.70;1.00
9167;DHT22;4618;48.818;9.088;2023-02-20T11:19:54;19.70;1.00
9167;DHT22;4618;48.818;9.088;2023-02-20T11:22:46;19.20;1.00
9167;DHT22;4618;48.818;9.088;2023-02-20T11:27:55;19.70;1.00
9167;DHT22;4618;48.818;9.088;2023-02-20T11:30:31;20.30;1.00
9167;DHT22;4618;48.818;9.088;2023-02-20T11:33:18;20.70;1.00
9167;DHT22;4618;48.818;9.088;2023-02-20T11:35:48;20.80;1.00
9167;DHT22;4618;48.818;9.088;2023-02-20T11:43:18;21.80;1.00
9167;DHT22;4618;48.818;9.088;2023-02-20T11:45:45;20.80;1.00
9167;DHT22;4618;48.818;9.088;2023-02-20T11:50:43;21.20;1.00
9167;DHT22;4618;48.818;9.088;2023-02-20T11:53:30;21.20;1.00
9167;DHT22;4618;48.818;9.088;2023-02-20T11:56:14;20.80;1.00
9167;DHT22;4618;48.818;9.088;2023-02-20T11:58:41;19.90;1.00
9167;DHT22;4618;48.818;9.088;2023-02-20T12:01:26;19.30;1.00
9167;DHT22;4618;48.818;9.088;2023-02-20T12:03:56;19.80;1.00
9167;DHT22;4618;48.818;9.088;2023-02-20T12:06:40;19.80;1.00
9167;DHT22;4618;48.818;9.088;2023-02-20T12:09:12;19.70;1.00
9167;DHT22;4618;48.818;9.088;2023-02-20T12:11:40;20.40;1.00
9167;DHT22;4618;48.818;9.088;2023-02-20T12:14:11;20.80;1.00
9167;DHT22;4618;48.818;9.088;2023-02-20T12:17:18;21.60;1.00
9167;DHT22;4618;48.818;9.088;2023-02-20T12:20:12;20.80;1.00
9167;DHT22;4618;48.818;9.088;2023-02-20T12:28:40;22.10;1.00
9167;DHT22;4618;48.818;9.088;2023-02-20T12:31:21;22.10;1.00
9167;DHT22;4618;48.818;9.088;2023-02-20T12:36:28;21.30;1.00
9167;DHT22;4618;48.818;9.088;2023-02-20T12:44:13;23.80;1.00
9167;DHT22;4618;48.818;9.088;2023-02-20T12:46:49;25.10;1.00
9167;DHT22;4618;48.818;9.088;2023-02-20T12:52:24;25.10;1.00
9167;DHT22;4618;48.818;9.088;2023-02-20T12:57:50;25.10;1.00
9167;DHT22;4618;48.818;9.088;2023-02-20T13:00:32;25.50;1.00
9167;DHT22;4618;48.818;9.088;2023-02-20T13:05:36;25.30;1.00
9167;DHT22;4618;48.818;9.088;2023-02-20T13:08:44;25.60;1.00
9167;DHT22;4618;48.818;9.088;2023-02-20T13:11:04;25.20;1.00
9167;DHT22;4618;48.818;9.088;2023-02-20T13:13:44;24.90;1.00
9167;DHT22;4618;48.818;9.088;2023-02-20T13:19:34;24.30;1.00
9167;DHT22;4618;48.818;9.088;2023-02-20T13:22:02;23.60;1.00
9167;DHT22;4618;48.818;9.088;2023-02-20T13:24:36;22.90;1.00
9167;DHT22;4618;48.818;9.088;2023-02-20T13:27:07;23.20;1.00
9167;DHT22;4618;48.818;9.088;2023-02-20T13:29:38;23.60;1.00
9167;DHT22;4618;48.818;9.088;2023-02-20T13:32:28;23.50;1.00
9167;DHT22;4618;48.818;9.088;2023-02-20T13:40:36;23.50;1.00
9167;DHT22;4618;48.818;9.088;2023-02-20T13:45:41;22.00;1.00
9167;DHT22;4618;48.818;9.088;2023-02-20T13:48:17;22.30;1.00
9167;DHT22;4618;48.818;9.088;2023-02-20T13:50:43;22.90;1.00
9167;DHT22;4618;48.818;9.088;2023-02-20T13:53:09;22.80;1.00
9167;DHT22;4618;48.818;9.088;2023-02-20T13:55:35;22.70;1.00
9167;DHT22;4618;48.818;9.088;2023-02-20T13:58:08;22.00;1.00
9167;DHT22;4618;48.818;9.088;2023-02-20T14:03:18;21.40;1.00
9167;DHT22;4618;48.818;9.088;2023-02-20T14:05:44;20.90;1.00
9167;DHT22;4618;48.818;9.088;2023-02-20T14:08:17;21.30;1.00
9167;DHT22;4618;48.818;9.088;2023-02-20T14:10:43;21.40;1.00
9167;DHT22;4618;48.818;9.088;2023-02-20T14:13:20;20.90;1.00
9167;DHT22;4618;48.818;9.088;2023-02-20T14:15:57;20.70;1.00
9167;DHT22;4618;48.818;9.088;2023-02-20T14:18:29;21.20;1.00
9167;DHT22;4618;48.818;9.088;2023-02-20T14:21:03;21.00;1.00
9167;DHT22;4618;48.818;9.088;2023-02-20T14:23:30;20.40;1.00
9167;DHT22;4618;48.818;9.088;2023-02-20T14:26:00;20.50;1.00
9167;DHT22;4618;48.818;9.088;2023-02-20T14:28:28;21.00;1.00
9167;DHT22;4618;48.818;9.088;2023-02-20T14:31:05;21.20;1.00
9167;DHT22;4618;48.818;9.088;2023-02-20T14:33:32;21.30;1.00
9167;DHT22;4618;48.818;9.088;2023-02-20T14:36:13;21.70;1.00
9167;DHT22;4618;48.818;9.088;2023-02-20T14:41:21;20.70;1.00
9167;DHT22;4618;48.818;9.088;2023-02-20T14:44:00;20.20;1.00
9167;DHT22;4618;48.818;9.088;2023-02-20T14:46:32;20.60;1.00
9167;DHT22;4618;48.818;9.088;2023-02-20T14:49:13;20.50;1.00
9167;DHT22;4618;48.818;9.088;2023-02-20T14:51:40;20.40;1.00
9167;DHT22;4618;48.818;9.088;2023-02-20T14:54:24;20.70;1.00
9167;DHT22;4618;48.818;9.088;2023-02-20T14:56:51;20.80;1.00
9167;DHT22;4618;48.818;9.088;2023-02-20T14:59:31;21.00;1.00
9167;DHT22;4618;48.818;9.088;2023-02-20T15:02:19;20.90;1.00
9167;DHT22;4618;48.818;9.088;2023-02-20T15:04:54;21.30;1.00
9167;DHT22;4618;48.818;9.088;2023-02-20T15:07:23;21.10;1.00
9167;DHT22;4618;48.818;9.088;2023-02-20T15:09:51;21.30;1.00
9167;DHT22;4618;48.818;9.088;2023-02-20T15:15:11;19.90;1.00
9167;DHT22;4618;48.818;9.088;2023-02-20T15:17:41;19.40;1.00
9167;DHT22;4618;48.818;9.088;2023-02-20T15:20:18;19.00;1.00
9167;DHT22;4618;48.818;9.088;2023-02-20T15:22:44;18.90;1.00
9167;DHT22;4618;48.818;9.088;2023-02-20T15:25:26;18.90;1.00
9167;DHT22;4618;48.818;9.088;2023-02-20T15:33:39;18.10;1.00
9167;DHT22;4618;48.818;9.088;2023-02-20T15:36:13;18.30;1.00
9167;DHT22;4618;48.818;9.088;2023-02-20T15:38:39;18.70;1.00
9167;DHT22;4618;48.818;9.088;2023-02-20T15:41:05;18.50;1.00
9167;DHT22;4618;48.818;9.088;2023-02-20T15:43:32;18.80;1.00
9167;DHT22;4618;48.818;9.088;2023-02-20T15:45:58;19.00;1.00
9167;DHT22;4618;48.818;9.088;2023-02-20T15:48:24;18.30;1.00
9167;DHT22;4618;48.818;9.088;2023-02-20T15:50:50;18.20;1.00
9167;DHT22;4618;48.818;9.088;2023-02-20T15:53:28;18.40;1.00
9167;DHT22;4618;48.818;9.088;2023-02-20T15:55:55;18.30;1.00
9167;DHT22;4618;48.818;9.088;2023-02-20T15:58:33;18.10;1.00
9167;DHT22;4618;48.818;9.088;2023-02-20T16:01:00;17.90;1.00
9167;DHT22;4618;48.818;9.088;2023-02-20T16:03:28;17.80;1.00
9167;DHT22;4618;48.818;9.088;2023-02-20T16:05:54;17.70;1.00
9167;DHT22;4618;48.818;9.088;2023-02-20T16:08:21;17.60;1.00
9167;DHT22;4618;48.818;9.088;2023-02-20T16:10:46;17.80;1.00
9167;DHT22;4618;48.818;9.088;2023-02-20T16:13:32;17.50;1.00
9167;DHT22;4618;48.818;9.088;2023-02-20T16:16:23;17.30;1.00
9167;DHT22;4618;48.818;9.088;2023-02-20T16:18:47;17.00;1.00
9167;DHT22;4618;48.818;9.088;2023-02-20T16:21:14;16.60;1.00
9167;DHT22;4618;48.818;9.088;2023-02-20T16:23:41;16.40;1.00
9167;DHT22;4618;48.818;9.088;2023-02-20T16:26:09;16.20;1.00
9167;DHT22;4618;48.818;9.088;2023-02-20T16:28:35;16.00;1.00
9167;DHT22;4618;48.818;9.088;2023-02-20T16:31:00;15.70;1.00
9167;DHT22;4618;48.818;9.088;2023-02-20T16:33:26;15.40;1.00
9167;DHT22;4618;48.818;9.088;2023-02-20T16:35:52;14.90;1.00
9167;DHT22;4618;48.818;9.088;2023-02-20T16:38:18;14.50;1.00
9167;DHT22;4618;48.818;9.088;2023-02-20T16:40:45;14.10;1.00
9167;DHT22;4618;48.818;9.088;2023-02-20T16:43:12;13.80;1.00
9167;DHT22;4618;48.818;9.088;2023-02-20T16:45:38;13.50;1.00
9167;DHT22;4618;48.818;9.088;2023-02-20T16:48:11;13.00;1.00
9167;DHT22;4618;48.818;9.088;2023-02-20T16:50:39;12.60;1.00
9167;DHT22;4618;48.818;9.088;2023-02-20T16:53:04;12.40;1.00
9167;DHT22;4618;48.818;9.088;2023-02-20T16:55:35;12.10;1.00
9167;DHT22;4618;48.818;9.088;2023-02-20T16:58:03;11.90;1.00
9167;DHT22;4618;48.818;9.088;2023-02-20T17:00:31;11.70;1.00
9167;DHT22;4618;48.818;9.088;2023-02-20T17:02:58;11.40;1.00
9167;DHT22;4618;48.818;9.088;2023-02-20T17:05:27;11.30;1.00
9167;DHT22;4618;48.818;9.088;2023-02-20T17:07:54;11.20;1.00
9167;DHT22;4618;48.818;9.088;2023-02-20T17:10:21;11.20;1.00
9167;DHT22;4618;48.818;9.088;2023-02-20T17:12:47;11.40;1.00
9167;DHT22;4618;48.818;9.088;2023-02-20T17:15:15;11.40;1.00
9167;DHT22;4618;48.818;9.088;2023-02-20T17:17:42;11.30;1.00
9167;DHT22;4618;48.818;9.088;2023-02-20T17:20:13;11.20;1.00
9167;DHT22;4618;48.818;9.088;2023-02-20T17:22:39;11.00;1.00
9167;DHT22;4618;48.818;9.088;2023-02-20T17:25:13;10.80;1.00
9167;DHT22;4618;48.818;9.088;2023-02-20T17:27:39;10.50;1.00
9167;DHT22;4618;48.818;9.088;2023-02-20T17:30:05;10.40;1.00
9167;DHT22;4618;48.818;9.088;2023-02-20T17:32:31;10.20;1.00
9167;DHT22;4618;48.818;9.088;2023-02-20T17:34:56;9.90;1.00
9167;DHT22;4618;48.818;9.088;2023-02-20T17:37:22;9.70;1.00
9167;DHT22;4618;48.818;9.088;2023-02-20T17:39:47;9.50;1.00
9167;DHT22;4618;48.818;9.088;2023-02-20T17:42:13;9.30;1.00
9167;DHT22;4618;48.818;9.088;2023-02-20T17:44:38;9.10;1.00
9167;DHT22;4618;48.818;9.088;2023-02-20T17:47:05;9.00;1.00
9167;DHT22;4618;48.818;9.088;2023-02-20T17:49:34;9.10;1.00
9167;DHT22;4618;48.818;9.088;2023-02-20T17:52:00;9.20;1.00
9167;DHT22;4618;48.818;9.088;2023-02-20T17:54:29;9.20;1.00
9167;DHT22;4618;48.818;9.088;2023-02-20T17:56:56;9.20;1.00
9167;DHT22;4618;48.818;9.088;2023-02-20T17:59:22;9.30;1.00
9167;DHT22;4618;48.818;9.088;2023-02-20T18:01:48;9.30;1.00
9167;DHT22;4618;48.818;9.088;2023-02-20T18:04:14;9.30;1.00
9167;DHT22;4618;48.818;9.088;2023-02-20T18:06:40;9.30;1.00
9167;DHT22;4618;48.818;9.088;2023-02-20T18:09:07;9.40;1.00
9167;DHT22;4618;48.818;9.088;2023-02-20T18:11:35;9.60;1.00
9167;DHT22;4618;48.818;9.088;2023-02-20T18:14:01;9.60;1.00
9167;DHT22;4618;48.818;9.088;2023-02-20T18:16:27;9.60;1.00
9167;DHT22;4618;48.818;9.088;2023-02-20T18:18:53;9.60;1.00
9167;DHT22;4618;48.818;9.088;2023-02-20T18:21:25;9.60;1.00
9167;DHT22;4618;48.818;9.088;2023-02-20T18:23:51;9.60;1.00
9167;DHT22;4618;48.818;9.088;2023-02-20T18:26:17;9.60;1.00
9167;DHT22;4618;48.818;9.088;2023-02-20T18:28:43;9.50;1.00
9167;DHT22;4618;48.818;9.088;2023-02-20T18:31:10;9.40;1.00
9167;DHT22;4618;48.818;9.088;2023-02-20T18:33:37;9.20;1.00
9167;DHT22;4618;48.818;9.088;2023-02-20T18:36:03;9.00;1.00
9167;DHT22;4618;48.818;9.088;2023-02-20T18:38:29;8.90;1.00